This is the latest recevied weather packets stored in our database for station/object IN3XSV-13. If no packets are shown the sender has not sent any weather packets the latest 10 day(s).
| Time | Temp. | Humidity | Pressure | Rain* | Wind** | Luminosity | Snow |
|---|---|---|---|---|---|---|---|
| 1787901766 | 25.56° C | 72% | 1012.2 hPa | 0 mm | - | - | - |
| 1787901466 | 26.11° C | 73% | 1012.5 hPa | 0 mm | - | - | - |
| 1787901165 | 27.22° C | 71% | 1012.4 hPa | 0 mm | - | - | - |
| 1787900865 | 26.67° C | 74% | 1012.5 hPa | 0 mm | - | - | - |
| 1787900565 | 26.67° C | 76% | 1012.4 hPa | 0 mm | - | - | - |
| 1787900265 | 25.56° C | 79% | 1012.4 hPa | 0 mm | - | - | - |
| 1787899966 | 24.44° C | 81% | 1012.4 hPa | 0 mm | - | - | - |
| 1787899666 | 23.33° C | 82% | 1012.3 hPa | 0 mm | - | - | - |
| 1787899366 | 22.78° C | 82% | 1012.6 hPa | 0 mm | - | - | - |
| 1787899065 | 23.89° C | 81% | 1012.6 hPa | 0 mm | - | - | - |
| 1787898765 | 23.89° C | 83% | 1012.6 hPa | 0 mm | - | - | - |
| 1787898465 | 23.33° C | 85% | 1012.8 hPa | 0 mm | - | - | - |
| 1787898165 | 21.67° C | 87% | 1012.8 hPa | 0 mm | - | - | - |
| 1787897866 | 20.56° C | 89% | 1012.8 hPa | 0 mm | - | - | - |
| 1787897565 | 20° C | 89% | 1012.7 hPa | 0 mm | - | - | - |
| 1787897266 | 19.44° C | 89% | 1012.8 hPa | 0 mm | - | - | - |
| 1787896966 | 19.44° C | 89% | 1012.5 hPa | 0 mm | - | - | - |
| 1787896666 | 19.44° C | 89% | 1012.4 hPa | 0 mm | - | - | - |
| 1787896366 | 19.44° C | 89% | 1012.3 hPa | 0 mm | - | - | - |
| 1787896066 | 19.44° C | 89% | 1012.4 hPa | 0 mm | - | - | - |
| 1787895766 | 19.44° C | 89% | 1012.4 hPa | 0 mm | - | - | - |
| 1787895467 | 19.44° C | 89% | 1012 hPa | 0 mm | - | - | - |
| 1787895167 | 19.44° C | 89% | 1012.1 hPa | 0 mm | - | - | - |
| 1787894866 | 19.44° C | 89% | 1012.1 hPa | 0 mm | - | - | - |
| 1787894566 | 19.44° C | 88% | 1012.1 hPa | 0 mm | - | - | - |
* Rain latest hour (hover to see other rain measurements)
** Current wind speed in m/s (hover to see current wind gust speed)